Gulf Breeze, FL (32561)

9:09 AM CST on March 01, 2015 (GMT -0600)
Waterford Sound | Change Station
CLOSE
Current Station
Personal Weather Station
Location: Gulf Breeze, FL
Elevation: 49 ft
Nearby Weather Stations

Elev 49 ft 30.40 °N, 86.97 °W | Updated 11 minutes ago

Fog
Fog
52.7 °F
Feels Like 52.7 °F
N
1.7
Wind Variable Wind from East

Today
High -- | Low -- °F
--% Chance of Precip.
Yesterday
High -- | Low -- °F
Precip. -- in
6:14 AM 5:46 PM
Waxing Gibbous, 85% visible
Pressure 30.41 in
Visibility 0.8 miles
Clouds Overcast 200 ft
Dew Point 52 °F
Humidity 99%
Rainfall 0.00 in
Snow Depth Not available.
UV 1 out of 12
Pollen 8.80 out of 12
Air Quality Not available.
Flu Activity Not available.
METAR KPNS 011453Z 00000KT 3/4SM R17/3000V4000FT BR OVC002 10/10 A3040 RMK AO2 SLP298 T01000100 53016

More Conditions Fewer Conditions

Pressure 30.41 in
Visibility 0.8 miles
Clouds Overcast 200 ft
Dew Point 52 °F
Humidity 99%
Rainfall 0.00 in
Snow Depth Not available.
UV 1 out of 12
Pollen 8.80 out of 12
Air Quality Not available.
Flu Activity Not available.
METAR KPNS 011453Z 00000KT 3/4SM R17/3000V4000FT BR OVC002 10/10 A3040 RMK AO2 SLP298 T01000100 53016

More Conditions Fewer Conditions

10-Day Weather Forecast

Almanac

Astronomy

Mar. 01, 2015 Rise Set
Actual Time
Civil Twilight
Nautical Twilight
Astronomical Twilight
Moon
Length of Visible Light
Length of Day
Tomorrow will be .
, % of the Moon is Illuminated

Today's Extremes

State Highs State Lows

Community

WunderPhotos

Upload Photos

1,801,406 photos uploaded!

WunderBlogs® & News

Nearby

Air Quality

  Air Quality AQ Index Pollutant
Not available.

Snow Depth

Station Depth Elevation

Earthquake Activity

City Distance Mag. Time & Date
Minimum magnitude displayed is 2.5.

Coastal Water Temperatures

Place Temperature

Nearby Weather Stations